Terminal Aerodrome Forecast
Issued by NWS

Home | Current Version | Previous Version | Text Only | Print | Product List | Glossary On
Versions: 1 2 3 4 5 6 7 8 9 10 11 12 13 14 15
000
FTUS46 KPDT 212300
TAFPSC
TAF
KPSC 212320Z 2200/2224 22015G22KT P6SM FEW120
     FM220200 17007KT P6SM SCT180
     FM220900 17007KT P6SM BKN150
     FM221500 19011KT P6SM OVC100=

USA.gov is the U.S. government's official web portal to all federal, state and local government web resources and services.